AirNav   Pilot Hours Calculator
 
 1409 users online  

64CT Woodstock Airport
South Woodstock, Connecticut, USA

GOING TO SOUTH WOODSTOCK?


FAA INFORMATION EFFECTIVE 20 JUNE 2019

Location

FAA Identifier: 64CT
Lat/Long: 41-55-17.3510N / 071-57-10.2630W
41-55.289183N / 071-57.171050W
41.9214864 / -71.9528508
(estimated)
Elevation: 465 ft. / 142 m (estimated)
Variation: 15W (1985)
From city: 1 mile S of SOUTH WOODSTOCK, CT
Time zone: UTC -4 (UTC -5 during Standard Time)
Zip code: 06281

Airport Operations

Airport use: Private use. Permission required prior to landing
Control tower: no
ARTCC: BOSTON CENTER
FSS: BRIDGEPORT FLIGHT SERVICE STATION
Attendance: CONTINUOUS
Wind indicator: yes
Segmented circle: no
Lights: FOR LIRL RY 01/19 ON FOR 20 MINS WITH 5 CLICKS - 122.8.

Airport Communications

UNICOM: 122.8
WX AWOS-3 at LZD (7 nm S): 119.125 (860-779-7251)
WX ASOS at IJD (15 nm SW): 133.675 (860-456-8839)

Nearby radio navigation aids

VOR radial/distance  VOR name  Freq  Var
PUTr261/5.3PUTNAM VOR/DME117.4014W
ORWr019/22.0NORWICH VOR/DME110.0014W
PVDr311/26.2PROVIDENCE VOR/DME115.6014W
HFDr071/31.5HARTFORD VOR/DME114.9013W
GONr021/35.7GROTON VOR/DME110.8514W
BAFr127/36.9BARNES VORTAC113.0014W
GDMr187/37.8GARDNER VOR/DME110.6014W

 
NDB name  Hdg/Dist  Freq  Var  ID
FITCHBURG208/38.836515WFIT ..-. .. -

Airport Services

Fuel available: 100LL

Runway Information

Runway 1/19

Dimensions: 2200 x 75 ft. / 671 x 23 m
Surface: asphalt
Runway edge lights: non-standard
NON STANDARD THRESHOLD (RY 01) AND DISPLACED THRESHOLD (RY 19) LIGHTS.
Runway edge markings: FADED TO NON-EXISTANT.
MARKINGS DO NOT CONFORM TO FAA ADVISORY CIRCULAR.
RUNWAY 1  RUNWAY 19
Traffic pattern: leftleft
Displaced threshold: no225 ft.
Markings: NSTD, in poor conditionNSTD, in poor condition
Obstructions: treesnone

Airport Ownership and Management from official FAA records

Ownership: Privately-owned
Owner: FLYBOY ACRES, LLC
RT 169, BOX 95
SOUTH WOODSTOCK, CT 06267
Phone (860) 377-5881
ADDITIONAL: 401-489-1103
Manager: DOUGLAS DURAND
PO BOX 44
SOUTH WOODSTOCK, CT 06267
Phone (860) 377-5881
CO MANAGER: DOROTHY DURAND 89 RT 169 WOODSTOCK, CT 06281 401-489-1103

Airport Operational Statistics

Aircraft based on the field: 20
Single engine airplanes: 20
    

Additional Remarks

RDO CTL MODEL AIRPLANES FLYING AT TIMES.
FOR CD CTC PROVIDENCE APCH AT 401-738-8945, WHEN APCH CLSD CTC BOSTON ARTCC AT 603-879-6859.

Instrument Procedures

There are no published instrument procedures at 64CT.

Some nearby airports with instrument procedures:

KLZD - Danielson Airport (7 nm S)
3B0 - Southbridge Municipal Airport (11 nm N)
KIJD - Windham Airport (15 nm SW)
KSFZ - North Central State Airport (21 nm E)
KORH - Worcester Regional Airport (21 nm N)
 
Loc | Ops | Rwys | IFR | FBO | Links
Com | Nav | Svcs | Stats | Notes

Silver City Flying Club
 
Area around 64CT (Woodstock Airport)
 
Road maps at: MapQuest Bing Google
 
Aerial photo
WARNING: Photo may not be current or correct
Aerial photo of 64CT (Woodstock Airport)
Do you have a better or more recent aerial photo of Woodstock Airport that you would like to share? If so, please send us your photo.

 
Sectional chart

 
Airport distance calculator
Flying to Woodstock Airport? Find the distance to fly.

From to 64CT

Sunrise and sunset
Times for 20-Jun-2019
 Local
(UTC-4)
 Zulu
(UTC)
Morning civil twilight04:3908:39
Sunrise05:1309:13
Sunset20:2500:25
Evening civil twilight21:0001:00

Current date and time
Zulu (UTC)  20-Jun-2019 20:41:04
Local (UTC-4)  20-Jun-2019 16:41:04
 
METAR
KIJD 
15nm SW 
201959Z AUTO 19006KT 3SM -RA BR BKN005 OVC010 21/21 A2955 RMK AO2 P0000 T02110206
KSFZ 
20nm E 
202007Z AUTO 14004KT 1SM BR OVC002 19/19 A2956 RMK AO2
KORH 
21nm N 
202011Z 21008KT 10SM -RA OVC002 20/20 A2956 RMK AO2 P0010 T02000200
KPVD 
26nm SE 
202021Z 16008KT 1/2SM R05/2600V3000FT FG VV002 19/18 A2956 RMK AO2 TWR VIS 1 RAE00 P0000 T01940183 $
TAF
KORH 
21nm N 
201740Z 2018/2118 15009KT 1SM -SHRA BR OVC002 TEMPO 2018/2020 1/2SM FG FM210400 24005KT 1 1/2SM -SHRA BR OVC003 FM210900 32006KT 3SM -SHRA BR OVC003 FM211300 32007KT 5SM -SHRA BR OVC007 FM211600 33009KT 5SM BR VCSH OVC015 FM211700 33009KT P6SM VCSH BKN025
KPVD 
26nm SE 
201740Z 2018/2118 18008KT 2SM -SHRA BR OVC003 TEMPO 2018/2020 1/2SM FG OVC002 FM210000 20005KT 3/4SM -SHRA BR OVC004 FM210800 26004KT 1 1/2SM -SHRA BR OVC006 FM210900 29004KT 2SM -SHRA BR OVC006 FM211400 34009KT 3SM -SHRA BR OVC008 FM211600 34009KT 4SM BR VCSH OVC015
NOTAMs
Click for the latest NOTAMs
NOTAMs are issued by the DoD/FAA and will open in a separate window not controlled by AirNav.

 

 
 

Would you like to see your business listed on this page?

 If your business provides an interesting product or service to pilots, flight crews, aircraft, or users of the Woodstock Airport, you should consider listing it here.  To start the listing process, click on the button below
 
Add a business
 

Other Pages about Woodstock Airport

Update a link
 
Copyright © AirNav, LLC. All rights reserved. Privacy Policy  Contact